createdAt,value
2018-03-21T00:00:28.721Z,64.70
2018-03-21T00:05:31.465Z,64.00
2018-03-21T00:10:34.190Z,64.20
2018-03-21T00:15:36.986Z,64.10
2018-03-21T00:20:39.891Z,64.60
2018-03-21T00:25:42.883Z,64.40
2018-03-21T00:30:45.780Z,63.90
2018-03-21T00:35:48.380Z,64.10
2018-03-21T00:40:51.217Z,64.20
2018-03-21T00:45:53.869Z,64.30
2018-03-21T00:50:56.611Z,63.80
2018-03-21T00:55:59.281Z,64.60
2018-03-21T01:01:01.916Z,64.30
2018-03-21T01:06:04.612Z,64.70
2018-03-21T01:11:07.244Z,64.70
2018-03-21T01:16:09.972Z,65.40
2018-03-21T01:21:12.642Z,65.10
2018-03-21T01:26:15.380Z,65.70
2018-03-21T01:31:18.224Z,65.70
2018-03-21T01:36:20.943Z,65.30
2018-03-21T01:41:23.805Z,65.50
2018-03-21T01:46:27.864Z,65.60
2018-03-21T01:51:31.007Z,65.90
2018-03-21T01:56:33.730Z,66.10
2018-03-21T02:01:37.292Z,66.20
2018-03-21T02:06:40.899Z,65.90
2018-03-21T02:11:43.604Z,65.90
2018-03-21T02:16:46.309Z,66.70
2018-03-21T02:21:49.070Z,66.90
2018-03-21T02:26:52.495Z,66.00
2018-03-21T02:31:55.171Z,65.90
2018-03-21T02:36:59.619Z,66.10
2018-03-21T02:42:02.271Z,66.00
2018-03-21T02:47:05.109Z,65.70
2018-03-21T02:52:07.797Z,65.80
2018-03-21T02:57:10.536Z,65.90
2018-03-21T03:02:14.153Z,65.70
2018-03-21T03:07:17.686Z,65.90
2018-03-21T03:17:31.001Z,66.00
2018-03-21T03:22:33.815Z,66.40
2018-03-21T03:27:36.427Z,66.10
2018-03-21T03:32:39.047Z,66.30
2018-03-21T03:37:42.012Z,66.00
2018-03-21T03:42:44.723Z,66.30
2018-03-21T03:47:47.443Z,66.10
2018-03-21T03:52:50.118Z,66.20
2018-03-21T03:57:52.952Z,66.00
2018-03-21T04:02:55.821Z,65.80
2018-03-21T04:07:58.448Z,66.00
2018-03-21T04:13:01.207Z,65.90
2018-03-21T04:18:04.075Z,66.10
2018-03-21T04:23:06.756Z,65.90
2018-03-21T04:28:09.500Z,66.00
2018-03-21T04:33:12.341Z,65.70
2018-03-21T04:38:15.060Z,65.70
2018-03-21T04:43:17.679Z,65.70
2018-03-21T04:48:20.606Z,65.80
2018-03-21T04:53:23.317Z,65.90
2018-03-21T04:58:27.020Z,65.90
2018-03-21T05:03:29.722Z,65.90
2018-03-21T05:08:33.194Z,66.00
2018-03-21T05:13:35.837Z,65.90
2018-03-21T05:18:39.609Z,66.90
2018-03-21T05:23:42.482Z,66.10
2018-03-21T05:28:45.357Z,66.30
2018-03-21T05:33:48.914Z,66.30
2018-03-21T05:38:51.751Z,66.30
2018-03-21T05:43:54.626Z,66.30
2018-03-21T05:48:57.314Z,66.50
2018-03-21T05:54:00.042Z,66.20
2018-03-21T05:59:03.448Z,66.60
2018-03-21T06:04:06.390Z,66.60
2018-03-21T06:09:09.100Z,67.00
2018-03-21T06:14:11.930Z,66.40
2018-03-21T06:19:14.623Z,66.40
2018-03-21T06:24:17.379Z,66.80
2018-03-21T06:29:20.039Z,66.70
2018-03-21T06:34:22.727Z,66.70
2018-03-21T06:39:25.343Z,66.80
2018-03-21T06:44:27.996Z,67.00
2018-03-21T06:49:30.901Z,66.80
2018-03-21T06:54:34.480Z,66.70
2018-03-21T06:59:37.186Z,66.70
2018-03-21T07:04:39.836Z,67.00
2018-03-21T07:09:42.465Z,66.90
2018-03-21T07:14:57.093Z,66.50
2018-03-21T07:19:59.799Z,66.80
2018-03-21T07:25:03.173Z,67.60
2018-03-21T07:30:06.090Z,67.60
2018-03-21T07:35:09.014Z,68.20
2018-03-21T07:40:51.633Z,67.10
2018-03-21T07:45:54.493Z,67.10
2018-03-21T07:50:58.231Z,64.50
2018-03-21T07:56:01.181Z,64.50
2018-03-21T08:01:03.783Z,63.40
2018-03-21T08:06:06.702Z,63.30
2018-03-21T08:11:10.252Z,62.90
2018-03-21T08:16:13.064Z,62.80
2018-03-21T08:21:16.514Z,63.80
2018-03-21T08:26:19.111Z,63.80
2018-03-21T08:31:21.774Z,62.60
2018-03-21T08:36:24.462Z,62.70
2018-03-21T08:41:27.033Z,62.20
2018-03-21T08:46:30.042Z,61.90
2018-03-21T08:51:33.506Z,59.00
2018-03-21T08:56:37.625Z,58.90
2018-03-21T09:01:40.408Z,59.00
2018-03-21T09:06:43.313Z,58.90
2018-03-21T09:11:46.642Z,60.00
2018-03-21T09:16:49.453Z,59.20
2018-03-21T09:21:54.783Z,56.70
2018-03-21T09:26:57.783Z,56.70
2018-03-21T09:32:00.735Z,56.20
2018-03-21T09:37:04.951Z,55.30
2018-03-21T09:42:08.412Z,55.30
2018-03-21T09:47:11.575Z,53.10
2018-03-21T09:52:14.113Z,53.80
2018-03-21T09:57:16.666Z,53.30
2018-03-21T10:02:19.228Z,51.50
2018-03-21T10:07:21.775Z,53.60
2018-03-21T10:12:24.322Z,50.90
2018-03-21T10:17:26.886Z,51.70
2018-03-21T10:22:29.428Z,53.30
2018-03-21T10:27:32.759Z,51.20
2018-03-21T10:32:36.111Z,52.00
2018-03-21T10:37:38.664Z,52.00
2018-03-21T10:42:41.207Z,52.50
2018-03-21T10:47:44.160Z,52.60
2018-03-21T10:52:46.706Z,52.60
2018-03-21T10:57:49.282Z,52.30
2018-03-21T11:02:58.200Z,51.60
2018-03-21T11:08:00.744Z,51.50
2018-03-21T11:13:03.292Z,52.10
2018-03-21T11:18:05.847Z,52.80
2018-03-21T11:23:08.384Z,52.40
2018-03-21T11:28:10.920Z,50.60
2018-03-21T11:33:13.457Z,53.10
2018-03-21T11:38:15.992Z,52.00
2018-03-21T11:43:18.589Z,50.30
2018-03-21T11:48:21.185Z,51.60
2018-03-21T11:53:23.747Z,51.70
2018-03-21T11:58:26.324Z,51.00
2018-03-21T12:03:28.867Z,51.30
2018-03-21T12:08:31.512Z,50.10
2018-03-21T12:13:33.960Z,49.60
2018-03-21T12:18:36.523Z,49.00
2018-03-21T12:23:39.844Z,48.10
2018-03-21T12:28:43.169Z,48.70
2018-03-21T12:33:45.714Z,48.60
2018-03-21T12:38:48.283Z,47.50
2018-03-21T12:43:50.816Z,47.10
2018-03-21T12:48:53.386Z,45.30
2018-03-21T12:53:55.978Z,45.50
2018-03-21T12:58:58.518Z,45.50
2018-03-21T13:04:01.074Z,46.50
2018-03-21T13:09:03.621Z,47.50
2018-03-21T13:14:06.182Z,47.90
2018-03-21T13:19:09.088Z,47.70
2018-03-21T13:24:11.685Z,45.10
2018-03-21T13:29:14.252Z,42.70
2018-03-21T13:34:16.808Z,43.20
2018-03-21T13:39:19.355Z,44.90
2018-03-21T13:44:22.681Z,42.80
2018-03-21T13:49:26.023Z,42.90
2018-03-21T13:54:28.581Z,42.90
2018-03-21T13:59:31.137Z,43.30
2018-03-21T14:04:33.690Z,41.90
2018-03-21T14:09:36.247Z,43.00
2018-03-21T14:14:38.791Z,43.30
2018-03-21T14:19:42.104Z,44.20
2018-03-21T14:24:44.652Z,44.20
2018-03-21T14:29:47.219Z,44.20
2018-03-21T14:34:50.530Z,39.00
2018-03-21T14:39:53.084Z,39.00
2018-03-21T14:44:56.401Z,43.30
2018-03-21T14:49:58.959Z,43.20
2018-03-21T14:55:01.513Z,40.30
2018-03-21T15:00:04.074Z,39.80
2018-03-21T15:05:06.636Z,41.50
2018-03-21T15:10:09.241Z,36.10
2018-03-21T15:15:11.737Z,39.70
2018-03-21T15:20:15.051Z,39.00
2018-03-21T15:25:18.399Z,39.10
2018-03-21T15:30:20.950Z,39.20
2018-03-21T15:35:23.496Z,39.40
2018-03-21T15:40:26.813Z,41.20
2018-03-21T15:45:29.344Z,41.20
2018-03-21T15:50:31.878Z,42.00
2018-03-21T15:55:35.251Z,41.20
2018-03-21T16:00:39.112Z,41.20
2018-03-21T16:05:41.735Z,44.40
2018-03-21T16:10:44.280Z,44.20
2018-03-21T16:15:46.818Z,41.90
2018-03-21T16:20:49.366Z,40.60
2018-03-21T16:25:51.888Z,42.60
2018-03-21T16:30:54.507Z,41.40
2018-03-21T16:35:57.041Z,41.30
2018-03-21T16:41:00.369Z,44.20
2018-03-21T16:46:02.926Z,44.20
2018-03-21T16:51:05.466Z,44.50
2018-03-21T16:56:08.887Z,44.60
2018-03-21T17:01:11.497Z,44.60
2018-03-21T17:06:14.850Z,36.90
2018-03-21T17:11:17.408Z,37.00
2018-03-21T17:16:19.955Z,38.80
2018-03-21T17:21:22.494Z,38.50
2018-03-21T17:26:25.801Z,40.80
2018-03-21T17:31:28.359Z,40.80
2018-03-21T17:36:30.910Z,41.60
2018-03-21T17:41:34.222Z,44.10
2018-03-21T17:46:36.823Z,43.50
2018-03-21T17:51:39.421Z,44.20
2018-03-21T17:56:42.727Z,45.60
2018-03-21T18:01:45.293Z,45.50
2018-03-21T18:06:47.864Z,46.80
2018-03-21T18:11:50.436Z,47.30
2018-03-21T18:16:53.037Z,47.70
2018-03-21T18:21:56.349Z,48.30
2018-03-21T18:26:58.915Z,48.20
2018-03-21T18:32:02.303Z,48.70
2018-03-21T18:37:04.804Z,48.70
2018-03-21T18:42:07.387Z,48.90
2018-03-21T18:47:10.709Z,49.10
2018-03-21T18:52:13.267Z,49.00
2018-03-21T18:57:15.883Z,49.00
2018-03-21T19:02:18.420Z,49.60
2018-03-21T19:07:20.979Z,50.70
2018-03-21T19:12:23.516Z,51.10
2018-03-21T19:17:26.355Z,51.50
2018-03-21T19:22:28.899Z,51.10
2018-03-21T19:27:31.458Z,51.40
2018-03-21T19:32:34.007Z,51.20
2018-03-21T19:37:36.589Z,51.00
2018-03-21T19:42:39.918Z,51.10
2018-03-21T19:47:42.465Z,51.10
2018-03-21T19:52:45.018Z,50.90
2018-03-21T19:57:48.332Z,51.70
2018-03-21T20:02:51.653Z,51.60
2018-03-21T20:07:54.271Z,51.60
2018-03-21T20:12:56.810Z,51.60
2018-03-21T20:17:59.372Z,52.00
2018-03-21T20:23:01.933Z,51.80
2018-03-21T20:28:04.491Z,51.30
2018-03-21T20:33:07.094Z,51.30
2018-03-21T20:38:09.655Z,51.50
2018-03-21T20:43:12.982Z,51.30
2018-03-21T20:48:15.729Z,51.30
2018-03-21T20:53:18.277Z,51.10
2018-03-21T20:58:20.851Z,51.40
2018-03-21T21:03:23.442Z,50.50
2018-03-21T21:08:26.101Z,50.90
2018-03-21T21:13:28.692Z,50.80
2018-03-21T21:18:31.240Z,51.70
2018-03-21T21:23:33.802Z,51.10
2018-03-21T21:28:36.330Z,51.10
2018-03-21T21:33:39.678Z,51.50
2018-03-21T21:38:42.280Z,51.60
2018-03-21T21:43:44.798Z,51.90
2018-03-21T21:48:47.353Z,51.50
2018-03-21T21:53:49.888Z,51.80
2018-03-21T21:58:52.514Z,51.90
2018-03-21T22:03:55.082Z,52.10
2018-03-21T22:08:57.626Z,52.30
2018-03-21T22:14:00.178Z,52.40
2018-03-21T22:19:03.498Z,52.50
2018-03-21T22:24:06.046Z,52.50
2018-03-21T22:29:08.597Z,52.70
2018-03-21T22:34:11.139Z,52.50
2018-03-21T22:39:13.688Z,52.50
2018-03-21T22:44:16.240Z,52.70
2018-03-21T22:49:18.803Z,52.40
2018-03-21T22:54:21.401Z,52.60
2018-03-21T22:59:23.964Z,52.40
2018-03-21T23:04:26.540Z,52.50
2018-03-21T23:09:29.081Z,52.70
2018-03-21T23:14:31.624Z,52.80
2018-03-21T23:19:34.175Z,52.80
2018-03-21T23:24:36.740Z,53.10
2018-03-21T23:29:39.275Z,53.70
2018-03-21T23:34:41.831Z,53.90
2018-03-21T23:39:44.387Z,54.40
2018-03-21T23:44:46.931Z,54.00
2018-03-21T23:49:49.470Z,54.40
2018-03-21T23:54:52.036Z,54.50
2018-03-21T23:59:54.635Z,54.60
